createdAt,value
2018-10-03T00:00:01.719Z,1003.72
2018-10-03T00:05:02.018Z,1003.75
2018-10-03T00:10:01.330Z,1003.83
2018-10-03T00:15:01.696Z,1003.8
2018-10-03T00:20:02.013Z,1003.89
2018-10-03T00:25:01.281Z,1004.04
2018-10-03T00:30:01.655Z,1004.1
2018-10-03T00:35:01.995Z,1003.97
2018-10-03T00:40:01.612Z,1004.17
2018-10-03T00:45:01.986Z,1004.19
2018-10-03T00:50:02.400Z,1004.24
2018-10-03T00:55:01.702Z,1004.22
2018-10-03T01:00:02.040Z,1004.21
2018-10-03T01:05:01.497Z,1004.25
2018-10-03T01:10:01.970Z,1004.18
2018-10-03T01:15:02.143Z,1004.2
2018-10-03T01:20:01.403Z,1004.29
2018-10-03T01:25:01.729Z,1004.41
2018-10-03T01:30:02.058Z,1004.4
2018-10-03T01:35:01.325Z,1004.46
2018-10-03T01:40:01.666Z,1004.46
2018-10-03T01:45:01.995Z,1004.42
2018-10-03T01:50:01.274Z,1004.35
2018-10-03T01:55:01.562Z,1004.44
2018-10-03T02:00:01.872Z,1004.48
2018-10-03T02:05:02.184Z,1004.54
2018-10-03T02:10:01.449Z,1004.57
2018-10-03T02:15:01.820Z,1004.61
2018-10-03T02:20:02.306Z,1004.63
2018-10-03T02:25:01.855Z,1004.68
2018-10-03T02:30:01.999Z,1004.73
2018-10-03T02:35:01.323Z,1004.68
2018-10-03T02:40:01.573Z,1004.72
2018-10-03T02:45:01.935Z,1004.72
2018-10-03T02:50:02.164Z,1004.75
2018-10-03T02:55:01.493Z,1004.78
2018-10-03T03:00:01.827Z,1004.83
2018-10-03T03:05:02.246Z,1004.84
2018-10-03T03:10:01.537Z,1004.92
2018-10-03T03:15:01.978Z,1005.07
2018-10-03T03:20:02.462Z,1005.11
2018-10-03T03:25:01.745Z,1005.24
2018-10-03T03:30:02.090Z,1005.33
2018-10-03T03:35:01.357Z,1005.35
2018-10-03T03:40:01.772Z,1005.32
2018-10-03T03:45:02.044Z,1005.4
2018-10-03T03:50:01.299Z,1005.38
2018-10-03T03:55:01.645Z,1005.46
2018-10-03T04:00:01.951Z,1005.49
2018-10-03T04:05:02.467Z,1005.53
2018-10-03T04:10:01.781Z,1005.54
2018-10-03T04:15:02.070Z,1005.57
2018-10-03T04:20:01.374Z,1005.63
2018-10-03T04:25:01.735Z,1005.73
2018-10-03T04:30:02.029Z,1005.88
2018-10-03T04:35:01.515Z,1005.88
2018-10-03T04:40:02.223Z,1005.91
2018-10-03T04:45:01.461Z,1005.93
2018-10-03T04:50:01.831Z,1005.89
2018-10-03T04:55:02.176Z,1006.03
2018-10-03T05:00:01.450Z,1006.1
2018-10-03T05:05:01.781Z,1005.95
2018-10-03T05:10:02.043Z,1006.1
2018-10-03T05:15:01.402Z,1006.18
2018-10-03T05:20:01.723Z,1006.19
2018-10-03T05:25:02.020Z,1006.38
2018-10-03T05:30:01.278Z,1006.56
2018-10-03T05:35:01.633Z,1006.69
2018-10-03T05:40:01.884Z,1006.75
2018-10-03T05:45:02.226Z,1006.76
2018-10-03T05:50:01.571Z,1006.77
2018-10-03T05:55:01.917Z,1006.98
2018-10-03T06:00:02.214Z,1007.01
2018-10-03T06:05:01.517Z,1007.08
2018-10-03T06:10:01.737Z,1007.17
2018-10-03T06:15:02.128Z,1007.23
2018-10-03T06:20:01.423Z,1007.22
2018-10-03T06:25:01.755Z,1007.25
2018-10-03T06:30:02.053Z,1007.25
2018-10-03T06:35:01.336Z,1007.32
2018-10-03T06:40:01.640Z,1007.46
2018-10-03T06:45:02.010Z,1007.54
2018-10-03T06:50:01.263Z,1007.64
2018-10-03T06:55:01.531Z,1007.68
2018-10-03T07:00:01.935Z,1007.77
2018-10-03T07:05:02.246Z,1007.74
2018-10-03T07:10:01.569Z,1007.81
2018-10-03T07:15:01.888Z,1007.92
2018-10-03T07:20:02.297Z,1008.15
2018-10-03T07:25:01.618Z,1008.16
2018-10-03T07:30:01.935Z,1008.26
2018-10-03T07:35:02.210Z,1008.35
2018-10-03T07:40:01.531Z,1008.33
2018-10-03T07:45:01.820Z,1008.46
2018-10-03T07:50:02.123Z,1008.61
2018-10-03T07:55:01.360Z,1008.62
2018-10-03T08:00:01.691Z,1008.74
2018-10-03T08:05:02.206Z,1008.82
2018-10-03T08:10:01.764Z,1008.85
2018-10-03T08:15:02.086Z,1008.99
2018-10-03T08:20:01.337Z,1008.97
2018-10-03T08:25:01.727Z,1009.03
2018-10-03T08:30:02.342Z,1009.14
2018-10-03T08:35:01.846Z,1009.14
2018-10-03T08:40:02.134Z,1009.2
2018-10-03T08:45:01.380Z,1009.21
2018-10-03T08:50:01.687Z,1009.25
2018-10-03T08:55:02.059Z,1009.37
2018-10-03T09:00:01.302Z,1009.34
2018-10-03T09:05:01.630Z,1009.48
2018-10-03T09:10:01.939Z,1009.5
2018-10-03T09:15:02.302Z,1009.46
2018-10-03T09:20:01.611Z,1009.64
2018-10-03T09:25:02.000Z,1009.64
2018-10-03T09:30:01.256Z,1009.71
2018-10-03T09:35:01.608Z,1009.73
2018-10-03T09:40:02.041Z,1009.91
2018-10-03T09:45:01.308Z,1009.91
2018-10-03T09:50:01.691Z,1009.96
2018-10-03T09:55:02.055Z,1009.94
2018-10-03T10:00:01.375Z,1010.02
2018-10-03T10:05:01.925Z,1010
2018-10-03T10:10:02.216Z,1010.12
2018-10-03T10:15:01.495Z,1010.09
2018-10-03T10:20:01.881Z,1010.07
2018-10-03T10:25:02.433Z,1010.07
2018-10-03T10:30:01.792Z,1010.19
2018-10-03T10:35:02.129Z,1010.22
2018-10-03T10:40:01.867Z,1010.27
2018-10-03T10:45:02.233Z,1010.34
2018-10-03T10:50:01.546Z,1010.34
2018-10-03T10:55:01.785Z,1010.42
2018-10-03T11:00:02.162Z,1010.43
2018-10-03T11:05:01.433Z,1010.56
2018-10-03T11:10:01.773Z,1010.53
2018-10-03T11:15:02.095Z,1010.46
2018-10-03T11:20:01.348Z,1010.51
2018-10-03T11:25:02.095Z,1010.47
2018-10-03T11:30:02.551Z,1010.47
2018-10-03T11:35:01.934Z,1010.43
2018-10-03T11:40:02.238Z,1010.5
2018-10-03T11:45:01.597Z,1010.55
2018-10-03T11:50:01.889Z,1010.56
2018-10-03T11:55:02.170Z,1010.5
2018-10-03T12:00:01.447Z,1010.57
2018-10-03T12:05:01.820Z,1010.52
2018-10-03T12:10:02.094Z,1010.49
2018-10-03T12:15:01.418Z,1010.43
2018-10-03T12:20:01.737Z,1010.39
2018-10-03T12:25:02.346Z,1010.37
2018-10-03T12:30:01.668Z,1010.4
2018-10-03T12:35:02.051Z,1010.38
2018-10-03T12:40:01.359Z,1010.35
2018-10-03T12:45:01.879Z,1010.39
2018-10-03T12:50:02.210Z,1010.32
2018-10-03T12:55:01.558Z,1010.31
2018-10-03T13:00:01.939Z,1010.2
2018-10-03T13:05:02.415Z,1010.29
2018-10-03T13:10:01.736Z,1010.25
2018-10-03T13:15:02.030Z,1010.27
2018-10-03T13:20:01.349Z,1010.3
2018-10-03T13:25:02.001Z,1010.4
2018-10-03T13:30:01.287Z,1010.4
2018-10-03T13:35:01.641Z,1010.36
2018-10-03T13:40:01.949Z,1010.27
2018-10-03T13:45:02.342Z,1010.31
2018-10-03T13:50:01.645Z,1010.31
2018-10-03T13:55:02.096Z,1010.42
2018-10-03T14:00:01.373Z,1010.29
2018-10-03T14:05:01.943Z,1010.31
2018-10-03T14:10:02.246Z,1010.28
2018-10-03T14:15:01.588Z,1010.38
2018-10-03T14:20:01.863Z,1010.39
2018-10-03T14:25:02.272Z,1010.43
2018-10-03T14:30:01.752Z,1010.47
2018-10-03T14:35:02.137Z,1010.51
2018-10-03T14:40:01.440Z,1010.46
2018-10-03T14:45:01.746Z,1010.36
2018-10-03T14:50:02.046Z,1010.28
2018-10-03T14:55:01.295Z,1010.29
2018-10-03T15:00:01.651Z,1010.37
2018-10-03T15:05:01.989Z,1010.37
2018-10-03T15:10:02.486Z,1010.36
2018-10-03T15:15:01.783Z,1010.46
2018-10-03T15:20:02.122Z,1010.47
2018-10-03T15:25:01.392Z,1010.44
2018-10-03T15:30:02.010Z,1010.52
2018-10-03T15:35:01.310Z,1010.5
2018-10-03T15:40:01.628Z,1010.47
2018-10-03T15:45:01.972Z,1010.46
2018-10-03T15:50:02.590Z,1010.5
2018-10-03T15:55:02.232Z,1010.49
2018-10-03T16:00:01.570Z,1010.5
2018-10-03T16:05:01.921Z,1010.49
2018-10-03T16:10:02.251Z,1010.51
2018-10-03T16:15:01.669Z,1010.49
2018-10-03T16:20:01.917Z,1010.56
2018-10-03T16:25:02.283Z,1010.62
2018-10-03T16:30:01.553Z,1010.71
2018-10-03T16:35:01.883Z,1010.69
2018-10-03T16:40:02.286Z,1010.75
2018-10-03T16:45:01.551Z,1010.77
2018-10-03T16:50:02.224Z,1010.74
2018-10-03T16:55:01.558Z,1010.79
2018-10-03T17:00:01.899Z,1010.9
2018-10-03T17:05:02.309Z,1010.97
2018-10-03T17:10:01.643Z,1010.92
2018-10-03T17:15:01.985Z,1010.92
2018-10-03T17:20:02.320Z,1010.96
2018-10-03T17:25:01.601Z,1010.99
2018-10-03T17:30:01.903Z,1010.99
2018-10-03T17:35:02.201Z,1011.09
2018-10-03T17:40:01.432Z,1011.17
2018-10-03T17:45:01.783Z,1011.16
2018-10-03T17:50:02.054Z,1011.19
2018-10-03T17:55:01.292Z,1011.16
2018-10-03T18:00:01.565Z,1011.2
2018-10-03T18:05:02.396Z,1011.38
2018-10-03T18:10:01.907Z,1011.49
2018-10-03T18:15:02.195Z,1011.53
2018-10-03T18:20:01.482Z,1011.58
2018-10-03T18:25:01.995Z,1011.57
2018-10-03T18:30:01.284Z,1011.6
2018-10-03T18:35:01.594Z,1011.59
2018-10-03T18:40:01.896Z,1011.62
2018-10-03T18:45:02.493Z,1011.62
2018-10-03T18:50:01.830Z,1011.61
2018-10-03T18:55:02.117Z,1011.7
2018-10-03T19:00:01.393Z,1011.64
2018-10-03T19:05:01.760Z,1011.69
2018-10-03T19:10:02.017Z,1011.69
2018-10-03T19:15:01.306Z,1011.68
2018-10-03T19:20:02.017Z,1011.69
2018-10-03T19:25:01.437Z,1011.69
2018-10-03T19:30:01.765Z,1011.73
2018-10-03T19:35:02.271Z,1011.8
2018-10-03T19:40:01.638Z,1011.82
2018-10-03T19:45:02.031Z,1011.84
2018-10-03T19:50:01.362Z,1011.87
2018-10-03T19:55:01.920Z,1011.87
2018-10-03T20:00:02.389Z,1011.94
2018-10-03T20:05:01.794Z,1011.89
2018-10-03T20:10:02.246Z,1011.91
2018-10-03T20:15:02.136Z,1011.87
2018-10-03T20:20:01.468Z,1011.84
2018-10-03T20:25:01.926Z,1011.85
2018-10-03T20:30:02.405Z,1011.84
2018-10-03T20:35:01.879Z,1011.79
2018-10-03T20:40:02.244Z,1011.83
2018-10-03T20:45:01.569Z,1011.87
2018-10-03T20:50:02.086Z,1011.84
2018-10-03T20:55:01.384Z,1011.83
2018-10-03T21:00:01.686Z,1011.78
2018-10-03T21:05:02.003Z,1011.83
2018-10-03T21:10:01.313Z,1011.88
2018-10-03T21:15:01.599Z,1011.9
2018-10-03T21:20:02.043Z,1011.93
2018-10-03T21:25:01.804Z,1011.92
2018-10-03T21:30:02.327Z,1012.05
2018-10-03T21:35:01.814Z,1011.98
2018-10-03T21:40:02.553Z,1012.05
2018-10-03T21:45:02.002Z,1012.08
2018-10-03T21:50:01.362Z,1012.1
2018-10-03T21:55:01.747Z,1012.17
2018-10-03T22:00:02.188Z,1012.16
2018-10-03T22:05:01.537Z,1012.1
2018-10-03T22:10:01.886Z,1012.12
2018-10-03T22:15:02.203Z,1012.08
2018-10-03T22:20:01.594Z,1012.02
2018-10-03T22:25:01.986Z,1012.07
2018-10-03T22:30:01.320Z,1012.04
2018-10-03T22:35:01.637Z,1012.07
2018-10-03T22:40:02.095Z,1012.05
2018-10-03T22:45:01.391Z,1012.09
2018-10-03T22:50:01.713Z,1012.1
2018-10-03T22:55:02.021Z,1012.11
2018-10-03T23:00:01.321Z,1012.12
2018-10-03T23:05:01.727Z,1012.16
2018-10-03T23:10:02.160Z,1012.16
2018-10-03T23:20:01.807Z,1012.3
2018-10-03T23:25:02.180Z,1012.35
2018-10-03T23:30:01.409Z,1012.31
2018-10-03T23:35:01.755Z,1012.32
2018-10-03T23:40:02.035Z,1012.31
2018-10-03T23:45:01.337Z,1012.3
2018-10-03T23:50:01.650Z,1012.23
2018-10-03T23:55:01.962Z,1012.28
